createdAt,value
2023-03-10T00:00:23.001Z,4.43
2023-03-10T00:02:50.278Z,4.63
2023-03-10T00:05:18.407Z,3.67
2023-03-10T00:07:45.203Z,3.67
2023-03-10T00:10:15.379Z,4.70
2023-03-10T00:12:42.009Z,4.07
2023-03-10T00:15:09.681Z,3.90
2023-03-10T00:17:36.411Z,3.97
2023-03-10T00:20:08.098Z,5.17
2023-03-10T00:22:39.051Z,4.20
2023-03-10T00:25:06.863Z,4.10
2023-03-10T00:27:33.897Z,4.17
2023-03-10T00:30:01.160Z,4.33
2023-03-10T00:32:27.864Z,4.87
2023-03-10T00:34:54.529Z,4.50
2023-03-10T00:37:21.122Z,4.20
2023-03-10T00:39:52.592Z,3.90
2023-03-10T00:42:19.820Z,3.53
2023-03-10T00:44:47.148Z,4.23
2023-03-10T00:47:13.790Z,2.90
2023-03-10T00:49:40.341Z,3.90
2023-03-10T00:52:07.137Z,4.30
2023-03-10T00:54:33.822Z,4.17
2023-03-10T00:57:00.385Z,3.50
2023-03-10T00:59:28.363Z,3.10
2023-03-10T01:01:56.282Z,3.60
2023-03-10T01:04:23.113Z,3.80
2023-03-10T01:06:49.924Z,3.47
2023-03-10T01:09:16.540Z,4.57
2023-03-10T01:11:43.257Z,4.27
2023-03-10T01:14:12.690Z,3.27
2023-03-10T01:16:39.404Z,2.93
2023-03-10T01:19:06.467Z,3.80
2023-03-10T01:21:35.226Z,2.80
2023-03-10T01:24:02.969Z,3.83
2023-03-10T01:26:30.283Z,3.20
2023-03-10T01:28:56.869Z,4.23
2023-03-10T01:31:23.895Z,3.53
2023-03-10T01:33:50.512Z,2.93
2023-03-10T01:36:20.458Z,3.33
2023-03-10T01:38:48.023Z,3.60
2023-03-10T01:41:15.606Z,3.07
2023-03-10T01:43:43.916Z,2.87
2023-03-10T01:46:29.761Z,3.60
2023-03-10T01:49:06.376Z,3.27
2023-03-10T01:51:35.064Z,3.70
2023-03-10T01:54:04.596Z,3.43
2023-03-10T01:56:31.215Z,3.37
2023-03-10T01:58:57.935Z,3.60
2023-03-10T02:01:24.822Z,3.07
2023-03-10T02:04:00.765Z,3.23
2023-03-10T02:06:28.161Z,4.10
2023-03-10T02:08:57.819Z,3.10
2023-03-10T02:11:24.471Z,3.70
2023-03-10T02:13:52.896Z,2.67
2023-03-10T02:16:19.709Z,3.90
2023-03-10T02:18:47.131Z,3.43
2023-03-10T02:21:21.128Z,3.57
2023-03-10T02:24:07.699Z,4.27
2023-03-10T02:27:18.135Z,2.67
2023-03-10T02:30:00.050Z,3.57
2023-03-10T02:32:34.535Z,3.40
2023-03-10T02:35:01.616Z,3.17
2023-03-10T02:37:30.916Z,4.23
2023-03-10T02:39:58.223Z,3.10
2023-03-10T02:42:28.810Z,3.50
2023-03-10T02:44:55.609Z,3.63
2023-03-10T02:47:23.005Z,3.43
2023-03-10T02:49:49.516Z,3.20
2023-03-10T02:52:44.866Z,4.50
2023-03-10T02:55:18.300Z,3.77
2023-03-10T02:57:45.719Z,3.20
2023-03-10T03:00:13.031Z,3.67
2023-03-10T03:02:40.335Z,2.90
2023-03-10T03:05:07.837Z,3.30
2023-03-10T03:07:34.582Z,3.17
2023-03-10T03:10:02.856Z,3.80
2023-03-10T03:12:29.959Z,3.17
2023-03-10T03:14:56.819Z,2.40
2023-03-10T03:17:23.416Z,3.57
2023-03-10T03:19:50.224Z,4.57
2023-03-10T03:22:16.833Z,3.17
2023-03-10T03:24:43.831Z,4.07
2023-03-10T03:27:10.623Z,3.33
2023-03-10T03:29:37.393Z,3.00
2023-03-10T03:32:05.962Z,3.23
2023-03-10T03:34:34.282Z,3.20
2023-03-10T03:37:03.915Z,4.00
2023-03-10T03:39:34.874Z,3.47
2023-03-10T03:42:04.991Z,3.20
2023-03-10T03:44:41.055Z,4.40
2023-03-10T03:47:09.213Z,3.87
2023-03-10T03:49:37.448Z,4.20
2023-03-10T03:52:05.149Z,4.30
2023-03-10T03:54:32.266Z,3.37
2023-03-10T03:56:58.829Z,2.93
2023-03-10T03:59:26.196Z,2.92
2023-03-10T04:01:53.989Z,3.43
2023-03-10T04:04:20.719Z,3.50
2023-03-10T04:06:48.119Z,3.90
2023-03-10T04:09:14.655Z,3.80
2023-03-10T04:11:43.131Z,3.63
2023-03-10T04:14:09.711Z,4.20
2023-03-10T04:16:36.246Z,3.20
2023-03-10T04:19:07.413Z,3.77
2023-03-10T04:21:35.894Z,4.50
2023-03-10T04:24:02.990Z,6.10
2023-03-10T04:26:32.177Z,14.50
2023-03-10T04:28:59.185Z,4.07
2023-03-10T04:31:27.245Z,5.00
2023-03-10T04:33:54.128Z,4.10
2023-03-10T04:36:21.191Z,4.30
2023-03-10T04:38:51.357Z,5.67
2023-03-10T04:41:18.786Z,4.20
2023-03-10T04:43:47.687Z,7.00
2023-03-10T04:46:15.329Z,6.77
2023-03-10T04:48:42.131Z,5.50
2023-03-10T04:51:11.337Z,5.77
2023-03-10T04:53:44.009Z,8.93
2023-03-10T04:56:11.096Z,8.03
2023-03-10T04:58:39.194Z,12.90
2023-03-10T05:01:13.617Z,15.13
2023-03-10T05:03:45.551Z,8.63
2023-03-10T05:06:15.404Z,11.43
2023-03-10T05:08:47.881Z,19.67
2023-03-10T05:11:15.771Z,10.60
2023-03-10T05:13:42.792Z,9.67
2023-03-10T05:16:18.386Z,8.17
2023-03-10T05:18:46.356Z,16.50
2023-03-10T05:21:14.405Z,11.47
2023-03-10T05:23:42.505Z,7.43
2023-03-10T05:26:10.885Z,9.90
2023-03-10T05:28:38.169Z,10.30
2023-03-10T05:31:13.353Z,11.27
2023-03-10T05:33:42.642Z,10.20
2023-03-10T05:36:12.704Z,8.47
2023-03-10T05:38:40.150Z,7.70
2023-03-10T05:41:10.085Z,8.10
2023-03-10T05:43:38.154Z,8.47
2023-03-10T05:46:06.650Z,13.00
2023-03-10T05:48:38.477Z,9.83
2023-03-10T05:51:10.717Z,7.93
2023-03-10T05:53:38.339Z,8.50
2023-03-10T05:56:10.386Z,6.50
2023-03-10T05:58:37.844Z,6.27
2023-03-10T06:01:05.195Z,6.23
2023-03-10T06:03:32.088Z,6.83
2023-03-10T06:05:59.043Z,5.80
2023-03-10T06:08:27.909Z,4.63
2023-03-10T06:10:54.922Z,4.47
2023-03-10T06:13:21.665Z,5.83
2023-03-10T06:15:52.578Z,5.80
2023-03-10T06:18:19.832Z,4.90
2023-03-10T06:20:47.994Z,5.77
2023-03-10T06:23:16.041Z,6.03
2023-03-10T06:25:42.699Z,5.70
2023-03-10T06:28:09.935Z,4.80
2023-03-10T06:30:36.413Z,4.20
2023-03-10T06:33:03.280Z,4.17
2023-03-10T06:35:31.673Z,4.67
2023-03-10T06:37:58.471Z,4.33
2023-03-10T06:40:25.212Z,4.53
2023-03-10T06:42:51.821Z,4.63
2023-03-10T06:45:18.649Z,4.80
2023-03-10T06:47:45.251Z,4.87
2023-03-10T06:50:14.489Z,4.20
2023-03-10T06:52:42.687Z,4.20
2023-03-10T06:55:10.751Z,4.77
2023-03-10T06:57:37.804Z,4.27
2023-03-10T07:00:05.678Z,5.30
2023-03-10T07:02:32.112Z,4.47
2023-03-10T07:04:59.200Z,5.20
2023-03-10T07:07:26.173Z,4.37
2023-03-10T07:09:52.682Z,5.50
2023-03-10T07:12:19.393Z,5.23
2023-03-10T07:14:45.933Z,4.60
2023-03-10T07:17:12.548Z,3.97
2023-03-10T07:19:39.344Z,6.40
2023-03-10T07:22:06.164Z,5.63
2023-03-10T07:24:32.672Z,4.67
2023-03-10T07:27:00.538Z,4.87
2023-03-10T07:29:27.431Z,4.80
2023-03-10T07:31:54.139Z,4.77
2023-03-10T07:34:21.152Z,4.93
2023-03-10T07:36:47.760Z,4.90
2023-03-10T07:39:14.783Z,4.90
2023-03-10T07:41:41.264Z,5.30
2023-03-10T07:44:08.031Z,4.80
2023-03-10T07:46:34.707Z,4.77
2023-03-10T07:49:04.190Z,5.80
2023-03-10T07:51:31.694Z,5.80
2023-03-10T07:53:58.754Z,5.77
2023-03-10T07:56:25.484Z,4.90
2023-03-10T07:58:52.063Z,5.40
2023-03-10T08:01:21.112Z,6.47
2023-03-10T08:03:48.327Z,5.50
2023-03-10T08:06:23.899Z,5.20
2023-03-10T08:08:52.649Z,5.03
2023-03-10T08:11:19.876Z,5.90
2023-03-10T08:13:47.551Z,4.93
2023-03-10T08:16:15.839Z,5.30
2023-03-10T08:18:42.640Z,4.77
2023-03-10T08:21:09.152Z,5.40
2023-03-10T08:23:36.863Z,5.60
2023-03-10T08:26:09.339Z,6.50
2023-03-10T08:28:38.863Z,6.07
2023-03-10T08:31:23.826Z,7.60
2023-03-10T08:33:50.290Z,7.00
2023-03-10T08:36:22.383Z,8.23
2023-03-10T08:38:50.674Z,6.40
2023-03-10T08:41:20.770Z,6.33
2023-03-10T08:43:49.297Z,8.27
2023-03-10T08:46:17.393Z,6.27
2023-03-10T08:48:43.858Z,6.70
2023-03-10T08:51:13.124Z,7.57
2023-03-10T08:53:41.615Z,6.90
2023-03-10T08:56:08.175Z,9.07
2023-03-10T08:58:34.658Z,6.10
2023-03-10T09:01:01.214Z,7.10
2023-03-10T09:03:30.299Z,6.33
2023-03-10T09:05:58.263Z,6.30
2023-03-10T09:08:27.413Z,7.13
2023-03-10T09:10:54.933Z,7.47
2023-03-10T09:13:22.017Z,6.00
2023-03-10T09:15:50.611Z,6.33
2023-03-10T09:18:17.345Z,5.60
2023-03-10T09:20:44.833Z,5.23
2023-03-10T09:23:13.457Z,5.07
2023-03-10T09:25:40.405Z,5.17
2023-03-10T09:28:08.543Z,5.70
2023-03-10T09:30:37.505Z,6.70
2023-03-10T09:33:10.399Z,5.67
2023-03-10T09:35:41.922Z,6.97
2023-03-10T09:38:14.892Z,6.47
2023-03-10T09:41:18.822Z,6.53
2023-03-10T09:44:02.458Z,6.33
2023-03-10T09:46:50.529Z,5.80
2023-03-10T09:49:33.975Z,6.73
2023-03-10T09:52:23.142Z,4.67
2023-03-10T09:54:56.063Z,4.73
2023-03-10T09:57:23.455Z,4.70
2023-03-10T09:59:52.452Z,4.00
2023-03-10T10:02:36.592Z,3.53
2023-03-10T10:05:11.263Z,5.00
2023-03-10T10:07:46.611Z,4.20
2023-03-10T10:10:17.525Z,4.03
2023-03-10T10:12:45.414Z,3.67
2023-03-10T10:15:24.010Z,3.90
2023-03-10T10:18:17.839Z,3.33
2023-03-10T10:20:48.525Z,3.40
2023-03-10T10:23:20.555Z,3.60
2023-03-10T10:25:49.388Z,3.00
2023-03-10T10:28:21.297Z,3.67
2023-03-10T10:30:48.390Z,3.17
2023-03-10T10:33:15.748Z,3.53
2023-03-10T10:36:00.402Z,3.77
2023-03-10T10:38:29.169Z,3.30
2023-03-10T10:41:07.480Z,2.43
2023-03-10T10:43:45.307Z,2.90
2023-03-10T10:46:14.493Z,2.80
2023-03-10T10:48:48.585Z,3.07
2023-03-10T10:51:29.385Z,3.83
2023-03-10T10:54:01.604Z,2.40
2023-03-10T10:56:28.860Z,2.43
2023-03-10T10:59:19.979Z,3.13
2023-03-10T11:02:04.718Z,2.90
2023-03-10T11:04:43.005Z,2.70
2023-03-10T11:07:32.284Z,2.73
2023-03-10T11:09:58.948Z,3.87
2023-03-10T11:12:35.953Z,2.40
2023-03-10T11:15:23.602Z,2.50
2023-03-10T11:17:53.732Z,2.70
2023-03-10T11:20:32.747Z,2.57
2023-03-10T11:23:16.393Z,2.57
2023-03-10T11:25:49.399Z,2.07
2023-03-10T11:28:27.738Z,2.77
2023-03-10T11:31:06.987Z,2.57
2023-03-10T11:33:42.641Z,2.70
2023-03-10T11:36:26.820Z,2.20
2023-03-10T11:38:59.892Z,2.17
2023-03-10T11:41:28.656Z,2.27
2023-03-10T11:43:59.066Z,2.80
2023-03-10T11:46:32.505Z,1.93
2023-03-10T11:49:12.186Z,2.30
2023-03-10T11:51:44.588Z,2.40
2023-03-10T11:54:13.974Z,2.40
2023-03-10T11:56:40.625Z,2.30
2023-03-10T11:59:33.041Z,2.17
2023-03-10T12:02:10.564Z,1.93
2023-03-10T12:04:57.800Z,1.80
2023-03-10T12:07:28.367Z,2.30
2023-03-10T12:09:59.178Z,2.80
2023-03-10T12:12:34.343Z,2.33
2023-03-10T12:15:05.964Z,1.83
2023-03-10T12:17:32.537Z,2.10
2023-03-10T12:20:12.858Z,1.60
2023-03-10T12:22:40.765Z,2.60
2023-03-10T12:25:29.133Z,2.00
2023-03-10T12:28:17.453Z,2.33
2023-03-10T12:30:52.229Z,2.30
2023-03-10T12:33:30.908Z,1.53
2023-03-10T12:36:22.847Z,1.70
2023-03-10T12:39:16.441Z,2.00
2023-03-10T12:41:47.857Z,2.03
2023-03-10T12:44:23.075Z,1.70
2023-03-10T12:46:53.213Z,1.50
2023-03-10T12:49:31.414Z,1.30
2023-03-10T12:52:06.613Z,1.30
2023-03-10T12:55:05.063Z,0.97
2023-03-10T12:57:41.393Z,0.80
2023-03-10T13:00:46.594Z,0.83
2023-03-10T13:03:23.036Z,0.60
2023-03-10T13:05:59.248Z,0.40
2023-03-10T13:08:49.894Z,0.40
2023-03-10T13:11:27.541Z,0.30
2023-03-10T13:14:19.709Z,0.50
2023-03-10T13:16:57.843Z,0.37
2023-03-10T13:19:27.483Z,0.60
2023-03-10T13:21:54.064Z,0.30
2023-03-10T13:24:32.292Z,0.50
2023-03-10T13:27:13.336Z,0.60
2023-03-10T13:29:54.048Z,0.57
2023-03-10T13:32:20.569Z,0.37
2023-03-10T13:34:47.049Z,0.27
2023-03-10T13:37:13.505Z,0.40
2023-03-10T13:39:40.194Z,0.60
2023-03-10T13:42:37.041Z,0.50
2023-03-10T13:45:34.055Z,0.33
2023-03-10T13:48:04.092Z,0.57
2023-03-10T13:50:30.824Z,0.47
2023-03-10T13:52:59.570Z,0.50
2023-03-10T13:55:27.996Z,0.30
2023-03-10T13:57:55.563Z,0.50
2023-03-10T14:00:23.776Z,1.30
2023-03-10T14:02:52.129Z,0.80
2023-03-10T14:05:45.457Z,0.50
2023-03-10T14:08:17.966Z,0.60
2023-03-10T14:10:44.408Z,0.37
2023-03-10T14:13:42.693Z,0.30
2023-03-10T14:16:09.719Z,0.40
2023-03-10T14:18:37.794Z,1.10
2023-03-10T14:21:33.079Z,0.40
2023-03-10T14:24:09.157Z,0.30
2023-03-10T14:26:38.263Z,0.30
2023-03-10T14:29:12.924Z,0.40
2023-03-10T14:31:39.453Z,0.33
2023-03-10T14:34:05.926Z,0.30
2023-03-10T14:36:32.671Z,0.40
2023-03-10T14:38:59.118Z,0.47
2023-03-10T14:41:25.617Z,0.60
2023-03-10T14:43:52.122Z,0.33
2023-03-10T14:46:18.821Z,0.30
2023-03-10T14:48:45.966Z,0.30
2023-03-10T14:51:17.853Z,0.50
2023-03-10T14:53:49.104Z,0.60
2023-03-10T14:56:19.151Z,0.50
2023-03-10T14:58:53.684Z,0.50
2023-03-10T15:01:21.233Z,0.50
2023-03-10T15:03:49.206Z,0.53
2023-03-10T15:06:18.561Z,0.50
2023-03-10T15:08:45.182Z,0.40
2023-03-10T15:11:11.903Z,0.50
2023-03-10T15:13:38.507Z,0.30
2023-03-10T15:16:06.222Z,0.80
2023-03-10T15:18:32.856Z,0.60
2023-03-10T15:21:00.373Z,0.20
2023-03-10T15:23:27.956Z,0.50
2023-03-10T15:25:55.405Z,0.40
2023-03-10T15:28:22.051Z,0.40
2023-03-10T15:30:48.801Z,0.40
2023-03-10T15:33:15.709Z,0.30
2023-03-10T15:35:42.844Z,0.20
2023-03-10T15:38:12.325Z,0.30
2023-03-10T15:40:38.839Z,0.40
2023-03-10T15:43:05.409Z,0.30
2023-03-10T15:45:32.356Z,0.30
2023-03-10T15:47:59.049Z,0.40
2023-03-10T15:50:26.074Z,0.40
2023-03-10T15:52:58.001Z,0.43
2023-03-10T15:55:25.579Z,0.30
2023-03-10T15:57:52.206Z,0.30
2023-03-10T16:00:20.515Z,0.30
2023-03-10T16:02:47.489Z,0.30
2023-03-10T16:05:14.754Z,0.30
2023-03-10T16:07:41.360Z,0.43
2023-03-10T16:10:11.048Z,0.30
2023-03-10T16:12:37.513Z,0.20
2023-03-10T16:15:04.330Z,0.53
2023-03-10T16:17:30.804Z,0.20
2023-03-10T16:20:00.327Z,0.30
2023-03-10T16:22:26.762Z,0.20
2023-03-10T16:24:53.213Z,0.30
2023-03-10T16:27:19.712Z,0.23
2023-03-10T16:29:46.229Z,0.30
2023-03-10T16:32:14.045Z,0.30
2023-03-10T16:34:40.518Z,0.20
2023-03-10T16:37:08.097Z,0.23
2023-03-10T16:39:35.082Z,0.40
2023-03-10T16:42:01.535Z,0.30
2023-03-10T16:44:28.008Z,0.37
2023-03-10T16:46:54.476Z,0.30
2023-03-10T16:49:20.992Z,0.40
2023-03-10T16:51:47.953Z,0.30
2023-03-10T16:54:16.784Z,0.40
2023-03-10T16:56:45.525Z,0.30
2023-03-10T16:59:15.303Z,0.40
2023-03-10T17:01:44.345Z,0.30
2023-03-10T17:04:11.246Z,0.30
2023-03-10T17:06:37.963Z,0.37
2023-03-10T17:09:06.320Z,0.53
2023-03-10T17:11:41.244Z,0.30
2023-03-10T17:14:11.041Z,2.30
2023-03-10T17:16:38.394Z,0.30
2023-03-10T17:19:08.041Z,0.20
2023-03-10T17:21:38.204Z,0.30
2023-03-10T17:24:08.989Z,0.37
2023-03-10T17:26:35.903Z,0.50
2023-03-10T17:29:02.835Z,0.20
2023-03-10T17:31:29.426Z,0.40
2023-03-10T17:33:59.070Z,0.23
2023-03-10T17:36:25.682Z,0.30
2023-03-10T17:38:53.654Z,0.50
2023-03-10T17:41:20.226Z,0.43
2023-03-10T17:43:47.450Z,0.20
2023-03-10T17:46:16.528Z,0.50
2023-03-10T17:48:43.307Z,0.20
2023-03-10T17:51:10.209Z,0.40
2023-03-10T17:53:36.660Z,0.20
2023-03-10T17:56:07.030Z,0.40
2023-03-10T17:58:34.217Z,0.40
2023-03-10T18:01:14.158Z,0.30
2023-03-10T18:03:41.354Z,0.20
2023-03-10T18:06:18.897Z,0.20
2023-03-10T18:08:45.871Z,0.30
2023-03-10T18:11:12.381Z,0.27
2023-03-10T18:13:39.185Z,0.20
2023-03-10T18:16:06.721Z,0.60
2023-03-10T18:18:33.329Z,0.60
2023-03-10T18:20:59.833Z,0.97
2023-03-10T18:23:26.291Z,0.50
2023-03-10T18:25:52.844Z,0.43
2023-03-10T18:28:19.838Z,0.40
2023-03-10T18:30:48.425Z,0.40
2023-03-10T18:33:15.283Z,0.20
2023-03-10T18:35:43.604Z,0.53
2023-03-10T18:38:14.990Z,0.40
2023-03-10T18:40:41.671Z,0.40
2023-03-10T18:43:08.582Z,0.30
2023-03-10T18:45:35.911Z,0.50
2023-03-10T18:48:02.357Z,1.20
2023-03-10T18:50:28.863Z,0.50
2023-03-10T18:52:55.426Z,0.40
2023-03-10T18:55:21.941Z,0.40
2023-03-10T18:57:48.434Z,0.40
2023-03-10T19:00:15.672Z,0.33
2023-03-10T19:02:42.593Z,0.30
2023-03-10T19:05:13.582Z,0.40
2023-03-10T19:07:40.093Z,0.50
2023-03-10T19:10:07.233Z,0.40
2023-03-10T19:12:33.694Z,0.40
2023-03-10T19:15:05.123Z,0.30
2023-03-10T19:17:32.360Z,0.40
2023-03-10T19:19:58.915Z,0.40
2023-03-10T19:22:25.428Z,0.37
2023-03-10T19:24:51.922Z,0.40
2023-03-10T19:27:18.488Z,0.40
2023-03-10T19:29:44.957Z,0.47
2023-03-10T19:32:11.497Z,0.30
2023-03-10T19:34:37.952Z,0.40
2023-03-10T19:37:04.655Z,0.30
2023-03-10T19:39:31.170Z,0.60
2023-03-10T19:41:57.732Z,0.40
2023-03-10T19:44:24.476Z,0.50
2023-03-10T19:46:51.293Z,0.47
2023-03-10T19:49:17.854Z,0.70
2023-03-10T19:51:44.391Z,0.40
2023-03-10T19:54:11.144Z,0.60
2023-03-10T19:56:37.692Z,0.60
2023-03-10T19:59:04.317Z,0.60
2023-03-10T20:01:30.882Z,0.70
2023-03-10T20:04:00.002Z,0.70
2023-03-10T20:06:28.355Z,0.73
2023-03-10T20:08:54.938Z,0.80
2023-03-10T20:11:21.704Z,0.60
2023-03-10T20:13:48.337Z,0.70
2023-03-10T20:16:15.563Z,0.80
2023-03-10T20:18:42.166Z,0.90
2023-03-10T20:21:08.710Z,0.67
2023-03-10T20:23:35.442Z,0.80
2023-03-10T20:26:04.101Z,0.37
2023-03-10T20:28:30.588Z,0.63
2023-03-10T20:30:57.098Z,0.70
2023-03-10T20:33:23.597Z,0.70
2023-03-10T20:35:50.080Z,0.60
2023-03-10T20:38:16.577Z,0.60
2023-03-10T20:40:43.069Z,0.63
2023-03-10T20:43:10.039Z,0.60
2023-03-10T20:45:36.904Z,1.33
2023-03-10T20:48:03.726Z,0.80
2023-03-10T20:50:30.195Z,0.53
2023-03-10T20:52:56.832Z,0.70
2023-03-10T20:55:25.923Z,0.60
2023-03-10T20:57:54.317Z,0.50
2023-03-10T21:00:22.590Z,0.50
2023-03-10T21:02:52.086Z,0.80
2023-03-10T21:05:19.522Z,0.70
2023-03-10T21:07:46.487Z,0.63
2023-03-10T21:10:14.399Z,1.00
2023-03-10T21:12:42.961Z,1.10
2023-03-10T21:15:12.264Z,0.70
2023-03-10T21:17:38.724Z,0.77
2023-03-10T21:20:09.051Z,0.90
2023-03-10T21:22:36.134Z,1.27
2023-03-10T21:25:05.229Z,0.70
2023-03-10T21:27:31.819Z,0.60
2023-03-10T21:29:59.161Z,0.90
2023-03-10T21:32:26.932Z,0.90
2023-03-10T21:34:53.528Z,0.90
2023-03-10T21:37:20.574Z,1.17
2023-03-10T21:39:48.071Z,0.83
2023-03-10T21:42:15.072Z,0.60
2023-03-10T21:44:41.595Z,0.90
2023-03-10T21:47:08.053Z,0.80
2023-03-10T21:49:34.490Z,0.93
2023-03-10T21:52:00.946Z,1.80
2023-03-10T21:54:27.464Z,0.77
2023-03-10T21:56:54.594Z,0.67
2023-03-10T21:59:21.029Z,0.60
2023-03-10T22:01:47.538Z,1.00
2023-03-10T22:04:14.226Z,0.83
2023-03-10T22:06:40.684Z,1.03
2023-03-10T22:09:07.180Z,0.80
2023-03-10T22:11:33.635Z,0.83
2023-03-10T22:14:00.114Z,1.40
2023-03-10T22:16:26.618Z,1.00
2023-03-10T22:18:53.171Z,0.80
2023-03-10T22:21:19.628Z,1.00
2023-03-10T22:23:46.149Z,0.60
2023-03-10T22:26:12.896Z,0.80
2023-03-10T22:28:39.620Z,1.00
2023-03-10T22:31:07.234Z,1.20
2023-03-10T22:33:34.208Z,1.30
2023-03-10T22:36:05.593Z,0.80
2023-03-10T22:38:32.341Z,0.80
2023-03-10T22:40:59.088Z,1.30
2023-03-10T22:43:25.930Z,1.13
2023-03-10T22:45:56.341Z,1.17
2023-03-10T22:48:22.806Z,1.27
2023-03-10T22:50:49.280Z,1.30
2023-03-10T22:53:17.836Z,1.20
2023-03-10T22:55:46.389Z,1.40
2023-03-10T22:58:14.274Z,1.30
2023-03-10T23:00:42.344Z,1.37
2023-03-10T23:03:11.636Z,1.40
2023-03-10T23:05:38.502Z,1.30
2023-03-10T23:08:05.273Z,1.50
2023-03-10T23:10:33.854Z,1.53
2023-03-10T23:13:02.026Z,1.70
2023-03-10T23:15:30.815Z,1.13
2023-03-10T23:17:57.821Z,1.40
2023-03-10T23:20:27.306Z,1.43
2023-03-10T23:22:55.231Z,1.40
2023-03-10T23:25:42.925Z,1.43
2023-03-10T23:28:11.008Z,1.67
2023-03-10T23:30:39.423Z,1.10
2023-03-10T23:33:07.467Z,0.90
2023-03-10T23:35:35.091Z,0.90
2023-03-10T23:38:02.966Z,1.07
2023-03-10T23:40:31.048Z,0.87
2023-03-10T23:42:59.108Z,1.07
2023-03-10T23:45:28.001Z,0.87
2023-03-10T23:47:55.540Z,0.83
2023-03-10T23:50:24.485Z,1.30
2023-03-10T23:52:51.144Z,1.30
2023-03-10T23:55:23.495Z,0.70
2023-03-10T23:57:49.965Z,1.13
